createdAt,value
2023-05-14T00:00:37.308Z,10.01
2023-05-14T00:06:00.686Z,9.92
2023-05-14T00:11:04.204Z,9.82
2023-05-14T00:16:07.710Z,9.73
2023-05-14T00:21:11.336Z,9.66
2023-05-14T00:26:14.855Z,9.57
2023-05-14T00:31:18.428Z,9.50
2023-05-14T00:36:21.995Z,9.43
2023-05-14T00:41:25.514Z,9.39
2023-05-14T00:46:29.055Z,9.33
2023-05-14T00:51:32.638Z,9.26
2023-05-14T00:56:36.359Z,9.18
2023-05-14T01:01:40.292Z,9.09
2023-05-14T01:06:52.809Z,9.06
2023-05-14T01:12:11.581Z,9.08
2023-05-14T01:17:20.273Z,9.04
2023-05-14T01:22:23.630Z,8.99
2023-05-14T01:27:47.219Z,8.94
2023-05-14T01:32:54.979Z,8.88
2023-05-14T01:38:01.451Z,8.81
2023-05-14T01:43:05.588Z,8.74
2023-05-14T01:48:09.019Z,8.64
2023-05-14T01:53:12.776Z,8.51
2023-05-14T01:58:16.294Z,8.41
2023-05-14T02:03:19.708Z,8.31
2023-05-14T02:08:23.220Z,8.23
2023-05-14T02:13:27.247Z,8.16
2023-05-14T02:18:30.792Z,8.12
2023-05-14T02:23:41.477Z,8.11
2023-05-14T02:28:46.201Z,8.10
2023-05-14T02:33:49.709Z,8.08
2023-05-14T02:38:53.328Z,8.07
2023-05-14T02:43:56.947Z,8.09
2023-05-14T02:49:00.469Z,8.09
2023-05-14T02:54:04.183Z,8.09
2023-05-14T02:59:07.700Z,8.10
2023-05-14T03:04:11.728Z,8.10
2023-05-14T03:09:15.243Z,8.09
2023-05-14T03:14:18.761Z,8.08
2023-05-14T03:19:22.276Z,8.11
2023-05-14T03:24:25.860Z,8.17
2023-05-14T03:29:29.814Z,8.28
2023-05-14T03:34:33.434Z,8.42
2023-05-14T03:39:37.261Z,8.63
2023-05-14T03:44:40.989Z,8.84
2023-05-14T03:49:44.288Z,9.07
2023-05-14T03:54:47.804Z,9.27
2023-05-14T03:59:51.366Z,9.47
2023-05-14T04:04:54.877Z,9.63
2023-05-14T04:09:58.453Z,9.80
2023-05-14T04:15:01.869Z,9.94
2023-05-14T04:20:06.204Z,10.07
2023-05-14T04:25:09.619Z,10.26
2023-05-14T04:30:13.773Z,10.45
2023-05-14T04:35:17.061Z,10.68
2023-05-14T04:40:20.781Z,10.94
2023-05-14T04:45:24.387Z,11.12
2023-05-14T04:50:29.334Z,11.37
2023-05-14T04:55:32.753Z,11.62
2023-05-14T05:00:36.260Z,11.88
2023-05-14T05:05:39.685Z,12.19
2023-05-14T05:10:43.208Z,12.50
2023-05-14T05:15:46.642Z,12.75
2023-05-14T05:20:50.266Z,13.02
2023-05-14T05:25:53.849Z,13.32
2023-05-14T05:30:57.396Z,13.67
2023-05-14T05:36:01.189Z,14.00
2023-05-14T05:41:04.704Z,14.32
2023-05-14T05:46:08.385Z,14.64
2023-05-14T05:51:12.241Z,14.92
2023-05-14T05:56:15.656Z,15.22
2023-05-14T06:01:19.174Z,15.49
2023-05-14T06:06:22.588Z,15.70
2023-05-14T06:11:26.923Z,15.93
2023-05-14T06:16:30.606Z,16.19
2023-05-14T06:21:34.568Z,16.46
2023-05-14T06:26:38.181Z,16.75
2023-05-14T06:31:41.631Z,17.04
2023-05-14T06:36:45.420Z,17.34
2023-05-14T06:41:48.829Z,17.64
2023-05-14T06:46:52.372Z,17.89
2023-05-14T06:51:55.861Z,18.21
2023-05-14T06:56:59.480Z,18.51
2023-05-14T07:02:03.513Z,18.80
2023-05-14T07:07:07.136Z,19.10
2023-05-14T07:12:10.498Z,19.39
2023-05-14T07:17:14.215Z,19.77
2023-05-14T07:22:17.781Z,20.07
2023-05-14T07:27:21.398Z,20.36
2023-05-14T07:32:25.658Z,20.61
2023-05-14T07:37:29.144Z,20.89
2023-05-14T07:42:36.370Z,21.17
2023-05-14T07:47:41.322Z,21.37
2023-05-14T07:52:45.628Z,21.60
2023-05-14T07:57:49.245Z,21.80
2023-05-14T08:02:52.872Z,21.98
2023-05-14T08:07:56.590Z,22.16
2023-05-14T08:12:59.801Z,22.31
2023-05-14T08:18:04.102Z,22.47
2023-05-14T08:23:07.749Z,22.64
2023-05-14T08:28:11.263Z,22.78
2023-05-14T08:33:14.777Z,22.91
2023-05-14T08:38:18.195Z,23.05
2023-05-14T08:43:26.240Z,23.18
2023-05-14T08:48:33.681Z,23.31
2023-05-14T08:53:38.671Z,23.46
2023-05-14T08:58:42.188Z,23.60
2023-05-14T09:03:47.142Z,23.68
2023-05-14T09:08:50.756Z,23.81
2023-05-14T09:13:54.172Z,23.92
2023-05-14T09:18:58.561Z,24.09
2023-05-14T09:24:02.013Z,24.31
2023-05-14T09:29:05.425Z,24.44
2023-05-14T09:34:08.940Z,24.47
2023-05-14T09:39:12.361Z,24.30
2023-05-14T09:44:15.975Z,24.35
2023-05-14T09:49:20.308Z,24.71
2023-05-14T09:54:25.612Z,25.08
2023-05-14T09:59:29.079Z,25.34
2023-05-14T10:04:34.483Z,25.41
2023-05-14T10:09:41.948Z,25.48
2023-05-14T10:14:53.915Z,25.51
2023-05-14T10:20:00.218Z,25.63
2023-05-14T10:25:04.615Z,25.72
2023-05-14T10:30:13.034Z,26.01
2023-05-14T10:35:25.635Z,26.21
2023-05-14T10:40:28.946Z,26.34
2023-05-14T10:45:34.613Z,26.39
2023-05-14T10:50:38.846Z,26.28
2023-05-14T10:55:43.489Z,26.27
2023-05-14T11:00:50.197Z,26.66
2023-05-14T11:05:55.954Z,26.98
2023-05-14T11:11:00.589Z,27.08
2023-05-14T11:21:13.496Z,27.37
2023-05-14T11:26:18.815Z,27.78
2023-05-14T11:31:24.517Z,27.96
2023-05-14T11:36:27.794Z,28.22
2023-05-14T11:41:31.736Z,28.30
2023-05-14T11:46:35.353Z,28.03
2023-05-14T11:51:38.958Z,27.39
2023-05-14T11:56:42.471Z,26.84
2023-05-14T12:01:48.509Z,26.48
2023-05-14T12:06:53.492Z,26.34
2023-05-14T12:11:57.008Z,26.20
2023-05-14T12:17:02.265Z,26.12
2023-05-14T12:22:06.238Z,26.31
2023-05-14T12:27:11.452Z,26.42
2023-05-14T12:32:15.265Z,26.25
2023-05-14T12:37:18.888Z,25.91
2023-05-14T12:42:22.610Z,25.68
2023-05-14T12:47:26.233Z,25.75
2023-05-14T12:57:36.846Z,26.35
2023-05-14T13:02:42.986Z,26.23
2023-05-14T13:07:47.148Z,26.49
2023-05-14T13:12:51.075Z,26.96
2023-05-14T13:17:54.545Z,27.32
2023-05-14T13:22:58.515Z,27.79
2023-05-14T13:28:02.212Z,28.42
2023-05-14T13:33:06.204Z,28.91
2023-05-14T13:38:09.681Z,29.24
2023-05-14T13:43:13.190Z,29.65
2023-05-14T13:48:16.671Z,31.02
2023-05-14T13:53:21.870Z,34.18
2023-05-14T13:58:26.194Z,37.96
2023-05-14T14:03:29.811Z,41.18
2023-05-14T14:08:33.139Z,43.26
2023-05-14T14:13:37.564Z,44.98
2023-05-14T14:18:41.716Z,47.81
2023-05-14T14:23:48.484Z,50.63
2023-05-14T14:28:51.999Z,53.38
2023-05-14T14:33:55.417Z,55.96
2023-05-14T14:38:58.930Z,58.11
2023-05-14T14:44:03.162Z,59.93
2023-05-14T14:49:06.484Z,59.54
2023-05-14T14:54:09.884Z,59.27
2023-05-14T14:59:13.299Z,60.50
2023-05-14T15:04:16.710Z,61.10
2023-05-14T15:09:20.126Z,61.28
2023-05-14T15:14:23.649Z,61.02
2023-05-14T15:19:27.158Z,60.67
2023-05-14T15:24:30.675Z,58.05
2023-05-14T15:29:34.193Z,57.94
2023-05-14T15:34:37.704Z,58.35
2023-05-14T15:39:41.117Z,58.35
2023-05-14T15:44:44.755Z,58.81
2023-05-14T15:49:48.150Z,59.14
2023-05-14T15:54:52.378Z,58.60
2023-05-14T15:59:57.125Z,56.85
2023-05-14T16:05:00.752Z,56.12
2023-05-14T16:10:05.120Z,54.97
2023-05-14T16:15:09.458Z,53.45
2023-05-14T16:20:13.130Z,53.15
2023-05-14T16:25:18.904Z,53.53
2023-05-14T16:30:22.534Z,53.62
2023-05-14T16:35:26.135Z,52.85
2023-05-14T16:40:29.683Z,51.76
2023-05-14T16:45:35.105Z,50.40
2023-05-14T16:50:38.518Z,48.29
2023-05-14T16:55:41.934Z,46.49
2023-05-14T17:00:45.441Z,45.57
2023-05-14T17:05:48.954Z,43.76
2023-05-14T17:10:52.369Z,42.69
2023-05-14T17:15:56.240Z,43.70
2023-05-14T17:21:00.224Z,44.44
2023-05-14T17:26:03.866Z,44.17
2023-05-14T17:31:07.538Z,42.61
2023-05-14T17:36:11.377Z,40.95
2023-05-14T17:41:14.691Z,39.30
2023-05-14T17:46:18.633Z,37.12
2023-05-14T17:51:22.339Z,35.33
2023-05-14T17:56:26.269Z,33.21
2023-05-14T18:01:29.860Z,31.41
2023-05-14T18:06:33.409Z,29.84
2023-05-14T18:11:37.134Z,28.61
2023-05-14T18:16:40.908Z,27.46
2023-05-14T18:21:46.884Z,26.43
2023-05-14T18:26:50.768Z,25.43
2023-05-14T18:31:54.283Z,24.40
2023-05-14T18:36:58.654Z,23.43
2023-05-14T18:42:02.026Z,22.58
2023-05-14T18:47:06.251Z,21.86
2023-05-14T18:52:09.660Z,21.26
2023-05-14T18:57:14.100Z,20.71
2023-05-14T19:02:17.503Z,20.19
2023-05-14T19:07:22.089Z,19.73
2023-05-14T19:12:25.681Z,19.31
2023-05-14T19:17:29.445Z,18.94
2023-05-14T19:22:32.914Z,18.56
2023-05-14T19:27:38.159Z,18.24
2023-05-14T19:32:41.638Z,17.94
2023-05-14T19:37:46.431Z,17.65
2023-05-14T19:42:50.460Z,17.36
2023-05-14T19:47:54.204Z,17.11
2023-05-14T19:52:57.989Z,16.86
2023-05-14T19:58:01.715Z,16.65
2023-05-14T20:03:06.081Z,16.44
2023-05-14T20:08:09.772Z,16.22
2023-05-14T20:13:13.178Z,16.07
2023-05-14T20:18:18.243Z,15.94
2023-05-14T20:23:21.598Z,15.78
2023-05-14T20:28:25.262Z,15.65
2023-05-14T20:33:29.395Z,15.56
2023-05-14T20:38:35.212Z,15.45
2023-05-14T20:43:40.215Z,15.34
2023-05-14T20:48:43.898Z,15.25
2023-05-14T20:53:49.073Z,15.12
2023-05-14T20:58:52.714Z,14.99
2023-05-14T21:03:56.323Z,14.86
2023-05-14T21:09:00.052Z,14.70
2023-05-14T21:14:03.981Z,14.57
2023-05-14T21:19:07.443Z,14.44
2023-05-14T21:24:11.008Z,14.32
2023-05-14T21:29:14.516Z,14.21
2023-05-14T21:34:18.030Z,14.13
2023-05-14T21:39:21.444Z,14.07
2023-05-14T21:44:24.862Z,14.00
2023-05-14T21:49:28.274Z,13.94
2023-05-14T21:54:31.888Z,13.91
2023-05-14T21:59:35.707Z,13.87
2023-05-14T22:04:39.224Z,13.86
2023-05-14T22:09:42.745Z,13.86
2023-05-14T22:14:52.214Z,13.88
2023-05-14T22:19:55.727Z,13.87
2023-05-14T22:24:59.123Z,13.84
2023-05-14T22:30:02.749Z,13.82
2023-05-14T22:35:06.667Z,13.79
2023-05-14T22:40:10.589Z,13.74
2023-05-14T22:45:14.311Z,13.64
2023-05-14T22:50:17.933Z,13.55
2023-05-14T22:55:23.070Z,13.45
2023-05-14T23:00:26.602Z,13.37
2023-05-14T23:05:30.325Z,13.31
2023-05-14T23:10:35.769Z,13.24
2023-05-14T23:15:39.194Z,13.17
2023-05-14T23:20:42.722Z,13.09
2023-05-14T23:25:46.226Z,13.00
2023-05-14T23:30:49.951Z,12.87
2023-05-14T23:35:53.672Z,12.77
2023-05-14T23:40:57.081Z,12.66
2023-05-14T23:46:01.217Z,12.53
2023-05-14T23:51:04.822Z,12.42
2023-05-14T23:56:09.260Z,12.34
